Time;durP1;ratioP1;P1;durP2;ratioP2;P2;SDS_P1;SDS_P2;PMS_P1;PMS_P2;Temp;Humidity;BMP_temperature;BMP_pressure;BME280_temperature;BME280_humidity;BME280_pressure;Samples;Min_cycle;Max_cycle;Signal;HPM_P1;HPM_P2
2022/11/21 06:28:34;;;;;;;115.00;50.70;;;;;;;-5.07;81.39;99307.73;99863;1299;137741;-65
2022/11/21 06:31:06;;;;;;;119.20;52.80;;;;;;;-5.05;81.28;99309.96;100894;1299;107540;-65
2022/11/21 06:33:34;;;;;;;112.50;50.00;;;;;;;-4.99;81.60;99303.98;99473;1290;142666;-64
2022/11/21 06:36:04;;;;;;;113.90;51.60;;;;;;;-4.89;81.16;99300.36;100345;1303;108016;-64
2022/11/21 06:38:31;;;;;;;110.60;52.60;;;;;;;-4.78;81.00;99301.38;99503;1305;97943;-65
2022/11/21 06:40:59;;;;;;;108.70;49.00;;;;;;;-4.66;80.97;99304.25;99498;1299;138713;-65
2022/11/21 06:43:27;;;;;;;97.40;47.00;;;;;;;-4.51;80.95;99312.44;99604;1300;107177;-65
2022/11/21 06:45:57;;;;;;;106.80;51.40;;;;;;;-4.34;80.81;99316.38;100847;1298;137951;-65
2022/11/21 06:48:25;;;;;;;106.60;51.20;;;;;;;-4.18;80.29;99324.04;100937;1297;106344;-66
2022/11/21 06:50:52;;;;;;;110.70;52.50;;;;;;;-4.03;80.31;99323.20;100851;1299;95578;-66
2022/11/21 06:53:19;;;;;;;115.40;54.20;;;;;;;-3.86;80.08;99327.13;99480;1289;137580;-65
2022/11/21 06:55:46;;;;;;;104.80;54.00;;;;;;;-3.68;80.02;99326.80;99537;1297;107126;-65
2022/11/21 06:58:13;;;;;;;109.20;51.90;;;;;;;-3.49;79.56;99328.35;99476;1298;138013;-65
2022/11/21 07:00:41;;;;;;;103.50;51.30;;;;;;;-3.32;79.12;99323.75;99619;1299;107394;-65
2022/11/21 07:03:09;;;;;;;106.40;54.00;;;;;;;-3.13;78.96;99317.45;99544;1300;138136;-66
2022/11/21 07:05:37;;;;;;;100.10;51.00;;;;;;;-2.97;78.71;99319.79;99549;1300;112159;-65
2022/11/21 07:08:05;;;;;;;98.60;49.50;;;;;;;-2.81;78.58;99317.34;100660;1305;342144;-64
2022/11/21 07:10:39;;;;;;;96.60;49.00;;;;;;;-2.66;77.69;99320.33;100838;1306;138390;-65
2022/11/21 07:13:27;;;;;;;96.00;49.00;;;;;;;-2.48;77.30;99323.16;100552;1304;107830;-66
2022/11/21 07:16:00;;;;;;;99.70;50.10;;;;;;;-2.24;77.02;99317.48;99577;1295;139201;-65
2022/11/21 07:18:29;;;;;;;93.80;49.90;;;;;;;-1.98;76.50;99315.20;99667;1298;111604;-65
2022/11/21 07:20:59;;;;;;;91.20;48.10;;;;;;;-1.73;75.92;99306.73;99582;1299;107832;-66
2022/11/21 07:23:27;;;;;;;95.00;50.40;;;;;;;-1.47;75.47;99296.91;99603;1292;97719;-65
2022/11/21 07:25:54;;;;;;;90.20;48.10;;;;;;;-1.25;75.05;99294.19;99551;1291;108214;-65
2022/11/21 07:28:22;;;;;;;89.50;45.30;;;;;;;-1.09;74.77;99287.87;98726;1300;1003704;-66
2022/11/21 07:30:50;;;;;;;88.80;46.00;;;;;;;-0.91;74.67;99278.46;100814;1299;112048;-66
2022/11/21 07:33:17;;;;;;;91.40;48.80;;;;;;;-0.74;74.50;99278.43;98834;1306;1003075;-66
2022/11/21 07:35:44;;;;;;;87.60;47.40;;;;;;;-0.60;73.58;99278.40;100814;1299;96012;-66
2022/11/21 07:38:12;;;;;;;85.10;46.30;;;;;;;-0.50;73.34;99284.52;100806;1305;107927;-67
2022/11/21 07:40:39;;;;;;;82.50;46.40;;;;;;;-0.41;73.05;99276.80;100721;1298;138899;-66
2022/11/21 07:43:07;;;;;;;79.90;43.10;;;;;;;-0.30;72.79;99275.23;100904;1299;110574;-66
2022/11/21 07:45:37;;;;;;;81.20;44.80;;;;;;;-0.19;72.22;99267.14;100750;1297;139370;-67
2022/11/21 07:48:07;;;;;;;80.30;44.20;;;;;;;-0.12;72.16;99268.84;100825;1300;96296;-66
2022/11/21 07:50:35;;;;;;;83.00;45.90;;;;;;;0.03;72.34;99265.66;100794;1306;106415;-66
2022/11/21 07:53:04;;;;;;;82.20;45.90;;;;;;;0.23;71.92;99265.05;100782;1298;137686;-67
2022/11/21 07:55:32;;;;;;;79.50;44.70;;;;;;;0.42;71.25;99263.04;100870;1291;110633;-66
2022/11/21 07:58:08;;;;;;;77.00;44.20;;;;;;;0.57;70.88;99268.23;99491;1292;138077;-65
2022/11/21 08:00:38;;;;;;;76.10;43.20;;;;;;;0.74;70.58;99272.04;99985;1300;98123;-66
2022/11/21 08:03:07;;;;;;;82.70;44.20;;;;;;;0.88;70.27;99274.14;99630;1288;137613;-66
2022/11/21 08:05:39;;;;;;;72.70;43.10;;;;;;;1.02;69.93;99274.17;100559;1307;95807;-66
2022/11/21 08:08:08;;;;;;;76.50;42.10;;;;;;;1.13;69.34;99275.63;99755;1299;111161;-67
2022/11/21 08:10:39;;;;;;;72.40;41.80;;;;;;;1.25;69.06;99276.88;99380;1292;137696;-67
2022/11/21 08:13:06;;;;;;;73.50;42.30;;;;;;;1.40;68.76;99274.84;99755;1293;98207;-66
2022/11/21 08:15:34;;;;;;;76.00;42.30;;;;;;;1.57;68.64;99276.35;99350;1298;138088;-68
2022/11/21 08:18:08;;;;;;;75.20;41.00;;;;;;;1.73;68.47;99279.07;98812;1305;1003350;-68
2022/11/21 08:20:36;;;;;;;67.00;39.30;;;;;;;1.86;68.22;99281.16;100537;1302;111783;-67
2022/11/21 08:23:04;;;;;;;71.50;41.00;;;;;;;1.92;67.32;99289.30;100792;1299;138705;-67
2022/11/21 08:25:32;;;;;;;77.40;41.50;;;;;;;1.87;66.24;99282.70;100849;1299;96207;-66
2022/11/21 08:28:01;;;;;;;68.50;41.10;;;;;;;1.82;66.02;99280.02;99804;1305;137491;-68
2022/11/21 08:30:29;;;;;;;68.80;40.40;;;;;;;1.88;66.38;99277.02;99606;1299;98006;-66
2022/11/21 08:32:57;;;;;;;67.60;37.60;;;;;;;2.05;66.56;99274.73;100159;1298;110091;-65
2022/11/21 08:35:24;;;;;;;65.50;39.60;;;;;;;2.27;66.44;99272.72;100090;1298;107872;-66
2022/11/21 08:37:57;;;;;;;65.20;37.70;;;;;;;2.53;66.62;99271.47;99603;1302;98316;-66
2022/11/21 08:40:25;;;;;;;66.30;39.20;;;;;;;2.79;66.11;99271.92;99593;1297;137287;-67
2022/11/21 08:42:58;;;;;;;62.00;39.10;;;;;;;2.98;65.63;99269.91;99543;1297;97865;-66
2022/11/21 08:45:25;;;;;;;61.60;37.60;;;;;;;3.18;64.73;99276.23;99478;1301;137509;-68
2022/11/21 08:47:52;;;;;;;60.60;39.50;;;;;;;3.33;64.07;99278.55;99532;1305;108077;-69
2022/11/21 08:50:22;;;;;;;58.30;36.00;;;;;;;3.40;62.99;99274.98;99562;1301;98529;-66
2022/11/21 08:52:49;;;;;;;56.70;36.40;;;;;;;3.53;63.21;99269.57;99554;1298;137368;-66
2022/11/21 08:55:17;;;;;;;56.20;35.10;;;;;;;3.61;63.04;99267.37;99434;1299;97832;-66
2022/11/21 08:57:45;;;;;;;60.00;35.30;;;;;;;3.66;62.51;99266.59;100019;1296;137235;-66
2022/11/21 09:00:15;;;;;;;58.90;34.80;;;;;;;3.57;62.61;99266.90;99577;1286;108189;-67
2022/11/21 09:02:42;;;;;;;55.90;34.00;;;;;;;3.63;62.95;99266.64;100475;1299;95579;-66
2022/11/21 09:05:11;;;;;;;53.00;32.90;;;;;;;3.60;61.36;99277.00;99448;1299;137478;-66
2022/11/21 09:07:40;;;;;;;52.00;31.40;;;;;;;3.49;61.47;99270.35;99697;1305;97816;-66
2022/11/21 09:10:09;;;;;;;54.40;32.60;;;;;;;3.46;61.91;99266.29;99822;1292;138132;-66
2022/11/21 09:12:37;;;;;;;47.90;31.50;;;;;;;3.35;60.76;99265.29;99720;1301;107812;-67
2022/11/21 09:18:06;;;;;;;53.40;32.00;;;;;;;3.18;61.65;99255.27;99565;1299;107328;-66
2022/11/21 09:20:38;;;;;;;52.80;31.50;;;;;;;3.10;62.02;99249.95;100886;1292;95886;-67
2022/11/21 09:23:08;;;;;;;48.60;29.80;;;;;;;3.16;62.60;99254.64;99862;1302;139260;-66
2022/11/21 09:25:35;;;;;;;51.20;30.00;;;;;;;3.25;62.56;99257.41;99768;1306;108739;-66
2022/11/21 09:28:04;;;;;;;47.20;28.90;;;;;;;3.21;62.67;99254.36;99418;1300;138011;-66
2022/11/21 09:30:32;;;;;;;48.50;29.90;;;;;;;3.23;62.58;99251.59;99652;1285;107277;-66
2022/11/21 09:33:03;;;;;;;45.60;28.60;;;;;;;3.51;62.91;99251.56;99965;1306;97832;-66
2022/11/21 09:35:31;;;;;;;52.00;30.20;;;;;;;3.83;62.80;99254.20;99580;1299;111451;-66
2022/11/21 09:38:00;;;;;;;44.90;27.60;;;;;;;4.08;61.99;99244.37;99472;1305;108241;-66
2022/11/21 09:40:29;;;;;;;46.00;25.90;;;;;;;4.15;61.39;99236.48;99354;1299;137464;-68
2022/11/21 09:43:10;;;;;;;43.80;26.90;;;;;;;4.23;60.24;99235.59;99349;1302;108387;-67
2022/11/21 09:45:45;;;;;;;45.70;26.70;;;;;;;4.03;59.29;99236.73;99395;1298;137986;-68
2022/11/21 09:48:16;;;;;;;48.40;28.20;;;;;;;3.72;58.66;99238.95;99631;1299;110696;-66
2022/11/21 09:50:48;;;;;;;45.90;27.80;;;;;;;3.35;58.62;99232.11;99496;1295;107931;-66
2022/11/21 09:53:24;;;;;;;50.30;29.70;;;;;;;3.05;59.33;99227.69;99451;1299;137275;-67
2022/11/21 09:55:56;;;;;;;49.30;29.80;;;;;;;3.03;59.63;99232.17;99504;1299;106426;-66
2022/11/21 09:58:29;;;;;;;53.90;30.70;;;;;;;3.07;59.31;99229.23;99415;1305;137436;-66
2022/11/21 10:00:57;;;;;;;52.80;31.90;;;;;;;3.03;59.25;99212.60;99842;1299;111318;-66
2022/11/21 10:03:41;;;;;;;52.50;30.50;;;;;;;3.10;60.20;99208.72;99368;1299;137906;-65
2022/11/21 10:06:29;;;;;;;48.90;29.30;;;;;;;3.30;59.86;99198.70;99431;1299;97706;-67
2022/11/21 10:09:07;;;;;;;52.40;30.40;;;;;;;3.34;59.12;99196.56;100361;1299;105844;-66
2022/11/21 10:14:46;;;;;;;54.80;30.30;;;;;;;3.34;59.54;99198.64;99379;1299;111796;-66
2022/11/21 10:17:22;;;;;;;60.10;32.20;;;;;;;3.48;59.70;99199.23;99735;1306;137799;-67
2022/11/21 10:20:14;;;;;;;57.20;34.60;;;;;;;3.63;59.65;99195.13;99866;1299;97830;-66
2022/11/21 10:23:04;;;;;;;60.10;34.60;;;;;;;3.74;59.33;99183.88;99412;1298;138514;-66
2022/11/21 10:25:37;;;;;;;60.90;37.20;;;;;;;3.81;59.36;99184.44;99502;1297;97834;-65
2022/11/21 10:28:07;;;;;;;57.90;33.70;;;;;;;3.85;59.00;99178.51;99425;1299;137379;-66
2022/11/21 10:30:35;;;;;;;62.30;37.40;;;;;;;3.96;59.86;99178.94;99506;1298;107627;-66
2022/11/21 10:33:12;;;;;;;58.70;36.00;;;;;;;4.17;59.55;99181.04;99589;1299;97718;-66
2022/11/21 10:35:43;;;;;;;64.40;38.30;;;;;;;4.31;59.79;99175.70;99498;1299;109502;-66
2022/11/21 10:38:21;;;;;;;58.50;36.30;;;;;;;4.51;59.43;99175.57;99556;1307;98199;-66
2022/11/21 10:40:54;;;;;;;56.10;33.90;;;;;;;4.65;59.35;99171.09;99508;1299;137852;-68
2022/11/21 10:46:18;;;;;;;57.40;35.30;;;;;;;4.78;58.71;99168.67;99893;1291;137679;-67
2022/11/21 10:48:54;;;;;;;60.60;36.80;;;;;;;4.75;58.36;99174.97;99598;1303;107744;-66
2022/11/21 10:51:36;;;;;;;63.40;36.90;;;;;;;4.65;58.14;99176.25;99816;1299;137955;-66
2022/11/21 10:57:05;;;;;;;58.40;36.20;;;;;;;4.21;57.51;99169.58;99487;1309;108256;-67
2022/11/21 10:59:33;;;;;;;63.20;36.70;;;;;;;4.05;58.22;99177.19;99640;1297;98368;-67
2022/11/21 11:02:02;;;;;;;61.00;36.50;;;;;;;4.01;59.11;99175.55;99428;1292;107494;-65
2022/11/21 11:04:31;;;;;;;60.20;35.90;;;;;;;4.08;58.92;99172.96;99410;1299;137777;-66
2022/11/21 11:07:22;;;;;;;59.50;35.80;;;;;;;4.00;58.50;99171.27;100780;1299;111346;-66
2022/11/21 11:09:51;;;;;;;62.00;36.60;;;;;;;3.86;59.01;99176.56;100621;1307;137546;-66
2022/11/21 11:13:32;;;;;;;59.10;35.40;;;;;;;3.72;58.49;99176.20;100805;1299;95912;-66
2022/11/21 11:15:28;;;;;;;64.90;35.40;;;;;;;3.46;59.15;99185.17;100630;1302;138993;-66
2022/11/21 11:17:59;;;;;;;63.20;36.10;;;;;;;3.24;59.43;99188.52;99550;1300;1002888;-66
2022/11/21 11:20:38;;;;;;;68.40;37.10;;;;;;;3.05;60.08;99195.23;99921;1304;111272;-66
2022/11/21 11:23:26;;;;;;;59.60;35.80;;;;;;;2.94;60.53;99195.27;100110;1300;138885;-66
2022/11/21 11:25:55;;;;;;;64.40;37.20;;;;;;;2.81;60.77;99191.21;99759;1300;138949;-66
2022/11/21 11:28:24;;;;;;;60.60;36.60;;;;;;;2.67;60.81;99190.42;99557;1297;107653;-66
2022/11/21 11:30:53;;;;;;;57.90;33.50;;;;;;;2.51;61.31;99192.41;100219;1297;137367;-67
2022/11/21 11:33:32;;;;;;;66.00;36.90;;;;;;;2.33;61.67;99188.23;99461;1293;112319;-67
2022/11/21 11:36:13;;;;;;;59.60;34.60;;;;;;;2.15;62.14;99189.55;99566;1305;107842;-67
2022/11/21 11:38:42;;;;;;;65.30;35.40;;;;;;;2.08;62.88;99182.80;100859;1292;96897;-68
2022/11/21 11:41:19;;;;;;;68.90;34.80;;;;;;;2.06;62.96;99182.48;100750;1299;106282;-67
2022/11/21 11:52:25;;;;;;;63.30;36.20;;;;;;;1.79;64.21;99176.86;100844;1306;95872;-66
2022/11/21 11:54:58;;;;;;;60.60;34.40;;;;;;;1.74;64.36;99177.78;100689;1305;137926;-67
2022/11/21 11:57:30;;;;;;;59.40;34.50;;;;;;;1.67;64.55;99173.61;100810;1291;95601;-66
2022/11/21 12:00:07;;;;;;;59.80;32.60;;;;;;;1.64;64.96;99172.27;100861;1303;111062;-67
2022/11/21 12:02:49;;;;;;;57.80;33.10;;;;;;;1.64;65.26;99173.83;100355;1298;106616;-67
2022/11/21 12:05:23;;;;;;;54.20;31.90;;;;;;;1.64;65.30;99175.02;99521;1299;97833;-68
2022/11/21 12:07:59;;;;;;;55.00;32.60;;;;;;;1.64;65.50;99184.27;99405;1300;138310;-67
2022/11/21 12:13:41;;;;;;;55.50;31.80;;;;;;;1.64;65.73;99180.34;99505;1305;137475;-67
2022/11/21 12:16:13;;;;;;;60.00;34.00;;;;;;;1.62;65.83;99175.22;99501;1308;107862;-67
2022/11/21 12:18:50;;;;;;;59.70;34.40;;;;;;;1.61;66.00;99172.13;99483;1298;137849;-67
2022/11/21 12:21:19;;;;;;;62.30;33.70;;;;;;;1.61;66.19;99170.42;100320;1292;107766;-68
2022/11/21 12:23:49;;;;;;;63.50;34.40;;;;;;;1.63;66.19;99161.52;99510;1299;97949;-67
2022/11/21 12:26:31;;;;;;;62.80;34.10;;;;;;;1.62;66.35;99154.14;99937;1300;137346;-68
2022/11/21 12:29:14;;;;;;;55.60;31.90;;;;;;;1.60;66.55;99145.42;100160;1305;106902;-67
2022/11/21 12:31:57;;;;;;;62.70;33.60;;;;;;;1.62;66.65;99142.50;99483;1299;138313;-76
2022/11/21 12:34:39;;;;;;;57.50;31.80;;;;;;;1.63;66.98;99134.77;100460;1304;107379;-68
2022/11/21 12:37:18;;;;;;;58.70;31.80;;;;;;;1.66;66.93;99133.87;99431;1295;137894;-67
2022/11/21 12:40:10;;;;;;;57.50;31.90;;;;;;;1.70;66.81;99136.38;99583;1305;111741;-68
2022/11/21 12:42:50;;;;;;;66.80;32.70;;;;;;;1.75;66.87;99133.04;99441;1299;137902;-68
2022/11/21 12:45:32;;;;;;;58.30;31.90;;;;;;;1.77;66.95;99129.23;99985;1299;97803;-67
2022/11/21 12:54:32;;;;;;;65.90;34.70;;;;;;;1.80;67.39;99108.81;99423;1300;111714;-68
2022/11/21 12:57:09;;;;;;;57.90;31.60;;;;;;;1.81;67.41;99108.13;100533;1306;106298;-68
2022/11/21 12:59:45;;;;;;;65.50;33.40;;;;;;;1.77;67.40;99104.73;99565;1296;97957;-67
2022/11/21 13:02:18;;;;;;;;;;;;;;;1.78;67.70;99108.31;99460;1300;137971;-68
2022/11/21 13:04:49;;;;;;;55.80;29.10;;;;;;;1.79;67.66;99102.48;99584;1298;97821;-69
2022/11/21 13:07:18;;;;;;;57.10;30.10;;;;;;;1.80;67.79;99107.63;100224;1291;138188;-68
2022/11/21 13:09:51;;;;;;;56.30;30.90;;;;;;;1.81;67.98;99111.71;99525;1296;107352;-67
2022/11/21 13:12:27;;;;;;;63.20;33.00;;;;;;;1.83;67.92;99115.98;99836;1296;98344;-68
2022/11/21 13:15:04;;;;;;;56.30;31.40;;;;;;;1.83;68.12;99124.71;99486;1306;106846;-68
2022/11/21 13:17:50;;;;;;;59.90;32.30;;;;;;;1.77;68.18;99121.19;99582;1298;97977;-67
2022/11/21 13:20:24;;;;;;;59.50;32.10;;;;;;;1.71;68.47;99125.73;99700;1300;137286;-68
2022/11/21 13:22:58;;;;;;;66.10;34.40;;;;;;;1.64;68.90;99120.55;100042;1297;106793;-69
2022/11/21 13:25:48;;;;;;;61.30;32.50;;;;;;;1.53;69.14;99115.88;100681;1299;139334;-68
2022/11/21 13:28:32;;;;;;;61.50;31.80;;;;;;;1.44;69.34;99112.23;99752;1299;107584;-69
2022/11/21 13:31:00;;;;;;;61.40;30.90;;;;;;;1.38;69.60;99111.46;99964;1302;139143;-68
2022/11/21 13:33:52;;;;;;;59.30;30.40;;;;;;;1.32;70.29;99109.14;99553;1305;110802;-68
2022/11/21 13:36:52;;;;;;;64.80;33.50;;;;;;;1.27;70.30;99110.42;99534;1299;108423;-68
2022/11/21 13:39:31;;;;;;;61.20;32.70;;;;;;;1.23;70.70;99115.25;99561;1299;97849;-70
2022/11/21 13:44:49;;;;;;;66.00;34.70;;;;;;;1.15;71.10;99117.73;99335;1299;137654;-69
2022/11/21 13:47:43;;;;;;;62.10;33.40;;;;;;;1.09;71.19;99113.71;99564;1309;112515;-69
2022/11/21 13:50:28;;;;;;;71.40;34.50;;;;;;;1.07;71.12;99103.63;99454;1300;138481;-68
2022/11/21 13:53:10;;;;;;;70.10;36.10;;;;;;;1.04;71.38;99103.15;100059;1299;99463;-69
2022/11/21 13:55:48;;;;;;;67.60;35.20;;;;;;;1.03;71.46;99100.61;99711;1301;138479;-69
2022/11/21 13:58:29;;;;;;;61.70;33.60;;;;;;;1.06;71.47;99096.11;99515;1304;97875;-68
2022/11/21 14:01:22;;;;;;;62.70;33.50;;;;;;;1.10;71.42;99096.08;100198;1300;137806;-67
2022/11/21 14:04:20;;;;;;;69.10;34.80;;;;;;;1.15;71.50;99092.41;100070;1302;107907;-68
2022/11/21 14:06:49;;;;;;;64.20;33.70;;;;;;;1.17;71.64;99091.52;99963;1308;138684;-68
2022/11/21 14:09:24;;;;;;;67.30;35.40;;;;;;;1.15;71.54;99089.15;99813;1305;107406;-68
2022/11/21 14:11:54;;;;;;;68.20;32.70;;;;;;;1.12;71.40;99086.98;100078;1300;96610;-69
2022/11/21 14:14:31;;;;;;;65.00;33.80;;;;;;;1.10;71.53;99090.77;99407;1291;137723;-69
2022/11/21 14:17:19;;;;;;;66.60;34.30;;;;;;;1.08;71.59;99089.94;99447;1303;106798;-70
2022/11/21 14:19:47;;;;;;;65.60;33.70;;;;;;;1.07;71.76;99085.31;99316;1304;138056;-69
2022/11/21 14:22:27;;;;;;;67.70;35.80;;;;;;;1.08;71.96;99089.25;99263;1290;108987;-69
2022/11/21 14:25:06;;;;;;;68.40;35.50;;;;;;;1.09;71.97;99079.16;99204;1296;138459;-69
2022/11/21 14:27:38;;;;;;;68.50;34.40;;;;;;;1.11;72.02;99079.46;100105;1305;111113;-68
2022/11/21 14:30:31;;;;;;;64.80;34.40;;;;;;;1.13;71.91;99081.83;99263;1303;107906;-68
2022/11/21 14:33:22;;;;;;;67.10;35.10;;;;;;;1.11;71.97;99076.55;100745;1298;95939;-69
2022/11/21 14:35:51;;;;;;;64.90;33.70;;;;;;;1.08;72.01;99082.39;100696;1308;107100;-69
2022/11/21 14:38:19;;;;;;;70.30;35.70;;;;;;;1.05;72.11;99088.93;100617;1309;138722;-69
2022/11/21 14:40:46;;;;;;;68.20;35.30;;;;;;;1.00;72.17;99091.90;100786;1300;109326;-69
2022/11/21 14:43:31;;;;;;;69.60;34.60;;;;;;;0.98;72.36;99092.79;100406;1305;139221;-69
2022/11/21 14:45:58;;;;;;;69.50;36.20;;;;;;;0.96;72.33;99089.40;99930;1299;97825;-69
2022/11/21 14:48:30;;;;;;;72.20;36.20;;;;;;;0.97;72.47;99093.49;99406;1303;106882;-69
2022/11/21 14:51:00;;;;;;;69.30;36.50;;;;;;;0.96;72.47;99092.30;99878;1305;97986;-69
2022/11/21 14:53:29;;;;;;;78.70;38.90;;;;;;;0.94;72.63;99090.29;98100;1289;1003326;-69
2022/11/21 14:55:56;;;;;;;78.00;38.10;;;;;;;0.91;72.49;99087.23;99452;1293;139641;-69
2022/11/21 14:58:28;;;;;;;78.70;39.60;;;;;;;0.89;72.74;99086.90;99509;1299;97935;-70
2022/11/21 15:01:06;;;;;;;78.60;40.90;;;;;;;0.84;72.83;99087.81;99839;1305;138302;-69
2022/11/21 15:03:34;;;;;;;77.60;39.40;;;;;;;0.79;73.05;99093.36;99730;1303;97835;-69
2022/11/21 15:06:10;;;;;;;82.30;40.70;;;;;;;0.76;73.04;99089.45;99459;1298;111504;-70
2022/11/21 15:08:39;;;;;;;78.60;38.80;;;;;;;0.76;73.13;99090.83;99309;1297;138474;-69
2022/11/21 15:11:34;;;;;;;79.00;39.20;;;;;;;0.78;73.16;99090.64;99459;1305;98300;-68
2022/11/21 15:14:07;;;;;;;73.80;39.50;;;;;;;0.79;73.27;99091.64;99339;1299;138040;-68
2022/11/21 15:16:42;;;;;;;79.50;42.30;;;;;;;0.79;73.39;99090.45;99549;1289;98177;-68
2022/11/21 15:19:12;;;;;;;87.70;43.40;;;;;;;0.75;73.25;99086.58;99342;1300;137960;-70
2022/11/21 15:21:45;;;;;;;92.60;47.30;;;;;;;0.71;73.28;99085.05;99552;1309;108117;-68
2022/11/21 15:24:29;;;;;;;89.60;45.40;;;;;;;0.65;73.36;99079.66;99438;1305;97807;-70
2022/11/21 15:26:57;;;;;;;85.10;44.50;;;;;;;0.62;73.49;99086.02;99350;1298;107958;-70
2022/11/21 15:29:25;;;;;;;93.70;45.40;;;;;;;0.58;73.59;99084.52;99354;1298;97841;-70
2022/11/21 15:32:12;;;;;;;96.20;47.70;;;;;;;0.56;73.77;99089.85;99292;1300;137952;-71
2022/11/21 15:35:00;;;;;;;96.70;49.20;;;;;;;0.51;73.91;99086.45;99278;1305;108641;-69
2022/11/21 15:37:29;;;;;;;96.90;49.70;;;;;;;0.47;74.11;99088.05;99304;1299;137356;-69
2022/11/21 15:39:58;;;;;;;96.30;50.10;;;;;;;0.42;74.24;99083.33;99358;1298;107466;-71
2022/11/21 15:42:37;;;;;;;104.00;51.40;;;;;;;0.37;74.54;99084.39;99404;1303;97924;-68
2022/11/21 15:45:24;;;;;;;101.20;50.70;;;;;;;0.33;74.83;99089.20;99534;1306;110649;-69
2022/11/21 15:47:51;;;;;;;103.00;49.00;;;;;;;0.28;74.99;99093.36;99675;1305;107365;-68
2022/11/21 15:50:22;;;;;;;98.70;48.50;;;;;;;0.27;75.09;99087.22;99679;1298;139253;-68
2022/11/21 15:52:52;;;;;;;90.30;46.90;;;;;;;0.27;75.34;99097.13;99443;1298;108984;-69
2022/11/21 15:55:22;;;;;;;92.40;46.90;;;;;;;0.27;75.35;99092.35;99654;1306;1002495;-68
2022/11/21 15:57:49;;;;;;;92.20;46.00;;;;;;;0.28;75.44;99094.21;98802;1305;1005151;-69
2022/11/21 16:00:19;;;;;;;93.00;46.30;;;;;;;0.31;75.47;99092.30;98756;1302;1003155;-69
2022/11/21 16:02:46;;;;;;;93.40;45.80;;;;;;;0.32;75.73;99088.53;100652;1298;140769;-69
2022/11/21 16:05:16;;;;;;;91.90;44.70;;;;;;;0.31;75.87;99086.31;100695;1299;108028;-66
2022/11/21 16:07:44;;;;;;;91.60;45.50;;;;;;;0.30;75.71;99089.57;100701;1303;139296;-68
2022/11/21 16:10:12;;;;;;;90.80;47.30;;;;;;;0.31;75.92;99095.89;100782;1305;110402;-68
2022/11/21 16:12:53;;;;;;;91.80;46.90;;;;;;;0.30;75.93;99093.68;100724;1304;137707;-68
2022/11/21 16:15:20;;;;;;;93.30;45.60;;;;;;;0.29;75.94;99084.11;100860;1305;95554;-69
2022/11/21 16:17:47;;;;;;;92.70;46.20;;;;;;;0.27;76.11;99081.06;100821;1304;106371;-68
2022/11/21 16:20:15;;;;;;;91.00;45.60;;;;;;;0.24;76.29;99082.82;100298;1306;137638;-69
2022/11/21 16:22:43;;;;;;;90.80;45.30;;;;;;;0.19;76.56;99079.95;100626;1299;110207;-68
2022/11/21 16:25:14;;;;;;;86.20;43.50;;;;;;;0.15;76.82;99086.11;99404;1300;138498;-69
2022/11/21 16:27:42;;;;;;;88.80;44.50;;;;;;;0.13;76.98;99081.87;99522;1298;97825;-69
2022/11/21 16:30:11;;;;;;;86.50;43.10;;;;;;;0.14;77.11;99084.26;100855;1299;106221;-67
2022/11/21 16:32:39;;;;;;;90.70;45.80;;;;;;;0.13;77.50;99092.47;99586;1306;138297;-70
2022/11/21 16:35:07;;;;;;;93.40;45.80;;;;;;;0.11;77.19;99086.67;99965;1299;111141;-66
2022/11/21 16:37:35;;;;;;;92.50;47.10;;;;;;;0.09;77.39;99091.14;98838;1298;1003664;-67
2022/11/21 16:40:03;;;;;;;96.60;45.30;;;;;;;0.04;77.68;99093.08;99574;1292;97963;-67
2022/11/21 16:42:30;;;;;;;99.60;46.10;;;;;;;0.00;77.92;99094.64;99622;1305;109042;-67
2022/11/21 16:44:58;;;;;;;96.50;44.50;;;;;;;-0.04;77.99;99086.45;99445;1292;138385;-67
2022/11/21 16:47:26;;;;;;;86.90;44.20;;;;;;;-0.05;78.14;99083.39;100374;1298;111121;-68
2022/11/21 16:49:53;;;;;;;92.90;45.20;;;;;;;-0.04;78.14;99082.34;99400;1299;138543;-67
2022/11/21 16:52:21;;;;;;;92.20;46.70;;;;;;;-0.05;78.47;99089.20;99557;1304;97722;-67
2022/11/21 16:54:49;;;;;;;95.60;47.70;;;;;;;-0.07;78.27;99084.44;100795;1306;138290;-67
2022/11/21 16:57:16;;;;;;;92.10;46.20;;;;;;;-0.10;78.60;99086.67;99968;1299;97854;-68
2022/11/21 16:59:44;;;;;;;94.60;45.00;;;;;;;-0.13;78.80;99092.35;99545;1305;112048;-67
2022/11/21 17:02:13;;;;;;;85.00;41.90;;;;;;;-0.14;78.85;99085.70;99444;1298;138251;-67
2022/11/21 17:04:41;;;;;;;86.80;43.20;;;;;;;-0.15;78.98;99083.48;99565;1298;98209;-67
2022/11/21 17:07:08;;;;;;;85.40;43.20;;;;;;;-0.16;79.06;99082.13;99419;1300;138313;-67
2022/11/21 17:09:36;;;;;;;91.50;44.70;;;;;;;-0.14;79.56;99081.09;99517;1303;98364;-67
2022/11/21 17:12:05;;;;;;;85.60;43.50;;;;;;;-0.13;79.17;99076.64;99578;1299;111221;-67
2022/11/21 17:14:32;;;;;;;89.00;43.70;;;;;;;-0.11;79.34;99081.73;99579;1304;138746;-68
2022/11/21 17:17:00;;;;;;;94.90;45.90;;;;;;;-0.12;79.47;99082.27;99530;1299;97881;-68
2022/11/21 17:19:28;;;;;;;87.70;43.60;;;;;;;-0.12;79.36;99083.29;99431;1299;139250;-68
2022/11/21 17:21:55;;;;;;;84.30;42.40;;;;;;;-0.11;79.52;99082.41;99558;1298;97863;-68
2022/11/21 17:24:22;;;;;;;87.90;43.40;;;;;;;-0.08;79.48;99080.67;99534;1305;110845;-67
2022/11/21 17:26:50;;;;;;;90.30;41.40;;;;;;;-0.08;79.52;99075.55;99427;1299;139685;-69
2022/11/21 17:29:17;;;;;;;86.10;44.70;;;;;;;-0.04;79.44;99075.00;99585;1304;98492;-67
2022/11/21 17:31:45;;;;;;;88.10;44.30;;;;;;;-0.02;79.47;99073.61;100056;1299;137434;-68
2022/11/21 17:34:14;;;;;;;90.00;45.80;;;;;;;0.02;79.60;99075.33;99550;1305;97838;-68
2022/11/21 17:36:41;;;;;;;90.90;44.50;;;;;;;-0.02;79.73;99078.57;99542;1306;137624;-68
2022/11/21 17:39:08;;;;;;;86.80;45.10;;;;;;;-0.03;79.68;99071.40;99566;1304;108171;-67
2022/11/21 17:41:36;;;;;;;89.80;43.10;;;;;;;-0.02;79.53;99068.14;99585;1298;97831;-68
2022/11/21 17:44:04;;;;;;;89.40;43.70;;;;;;;0.01;79.71;99066.77;100628;1298;142469;-68
2022/11/21 17:46:31;;;;;;;84.40;43.00;;;;;;;0.04;79.74;99070.67;100810;1299;96126;-68
2022/11/21 17:48:59;;;;;;;88.00;44.70;;;;;;;0.08;79.71;99071.66;99673;1305;137946;-68
2022/11/21 17:51:28;;;;;;;87.20;43.70;;;;;;;0.13;79.70;99071.61;99445;1299;108554;-68
2022/11/21 17:53:56;;;;;;;90.90;46.10;;;;;;;0.16;79.89;99078.59;99797;1301;97904;-67
2022/11/21 17:56:25;;;;;;;86.40;43.30;;;;;;;0.15;79.96;99077.23;99427;1299;139055;-68
2022/11/21 17:58:53;;;;;;;86.90;43.00;;;;;;;0.13;80.14;99078.27;99534;1299;98030;-68
2022/11/21 18:01:21;;;;;;;84.40;42.20;;;;;;;0.12;80.24;99076.58;100578;1299;139698;-68
2022/11/21 18:03:54;;;;;;;86.10;42.60;;;;;;;0.10;80.59;99082.75;100735;1299;108633;-69
2022/11/21 18:06:22;;;;;;;84.00;43.10;;;;;;;0.10;80.49;99076.60;100830;1299;95915;-68
2022/11/21 18:08:51;;;;;;;82.90;43.80;;;;;;;0.13;80.39;99076.06;99725;1297;138777;-70
2022/11/21 18:11:21;;;;;;;78.40;39.70;;;;;;;0.16;80.82;99081.33;99103;1298;99657;-69
2022/11/21 18:13:48;;;;;;;78.10;40.20;;;;;;;0.18;80.57;99075.51;99023;1297;139679;-69
2022/11/21 18:16:17;;;;;;;84.70;42.00;;;;;;;0.21;80.98;99080.61;99197;1300;106614;-70
2022/11/21 18:18:45;;;;;;;85.30;41.40;;;;;;;0.21;81.02;99082.84;99223;1306;138276;-70
2022/11/21 18:21:14;;;;;;;78.30;42.00;;;;;;;0.23;80.86;99078.54;99340;1300;106783;-70
2022/11/21 18:23:43;;;;;;;85.70;43.30;;;;;;;0.29;80.86;99082.77;99389;1298;97888;-70
2022/11/21 18:26:14;;;;;;;84.00;43.30;;;;;;;0.30;80.87;99084.62;99318;1304;139450;-70
2022/11/21 18:28:42;;;;;;;87.40;44.40;;;;;;;0.31;80.88;99082.21;99337;1306;108215;-69
2022/11/21 18:31:12;;;;;;;81.80;42.20;;;;;;;0.28;81.08;99082.25;99336;1299;138306;-69
2022/11/21 18:33:40;;;;;;;80.80;41.10;;;;;;;0.28;81.10;99080.37;99301;1299;106287;-68
2022/11/21 18:36:09;;;;;;;78.00;39.40;;;;;;;0.29;81.33;99081.73;99485;1296;97871;-67
2022/11/21 18:38:38;;;;;;;75.50;40.60;;;;;;;0.29;81.40;99080.69;99550;1299;137781;-67